sensor_id;sensor_type;location;lat;lon;timestamp;P1;durP1;ratioP1;P2;durP2;ratioP2
3293;SDS011;1659;51.470;6.770;2023-02-12T00:00:48;78.70;;;36.17;;
3293;SDS011;1659;51.470;6.770;2023-02-12T00:03:16;80.07;;;38.47;;
3293;SDS011;1659;51.470;6.770;2023-02-12T00:05:44;84.23;;;39.37;;
3293;SDS011;1659;51.470;6.770;2023-02-12T00:08:11;85.77;;;38.17;;
3293;SDS011;1659;51.470;6.770;2023-02-12T00:10:39;78.93;;;37.87;;
3293;SDS011;1659;51.470;6.770;2023-02-12T00:13:07;77.60;;;36.50;;
3293;SDS011;1659;51.470;6.770;2023-02-12T00:15:33;75.40;;;36.83;;
3293;SDS011;1659;51.470;6.770;2023-02-12T00:18:03;93.53;;;37.33;;
3293;SDS011;1659;51.470;6.770;2023-02-12T00:20:30;85.47;;;38.27;;
3293;SDS011;1659;51.470;6.770;2023-02-12T00:22:58;72.57;;;36.70;;
3293;SDS011;1659;51.470;6.770;2023-02-12T00:25:24;80.77;;;36.37;;
3293;SDS011;1659;51.470;6.770;2023-02-12T00:27:51;87.87;;;37.97;;
3293;SDS011;1659;51.470;6.770;2023-02-12T00:30:17;88.40;;;37.67;;
3293;SDS011;1659;51.470;6.770;2023-02-12T00:32:44;86.10;;;38.67;;
3293;SDS011;1659;51.470;6.770;2023-02-12T00:35:11;76.50;;;36.63;;
3293;SDS011;1659;51.470;6.770;2023-02-12T00:37:38;82.53;;;36.87;;
3293;SDS011;1659;51.470;6.770;2023-02-12T00:40:07;92.27;;;40.13;;
3293;SDS011;1659;51.470;6.770;2023-02-12T00:42:34;88.00;;;37.43;;
3293;SDS011;1659;51.470;6.770;2023-02-12T00:45:00;78.53;;;38.30;;
3293;SDS011;1659;51.470;6.770;2023-02-12T00:47:27;86.67;;;38.93;;
3293;SDS011;1659;51.470;6.770;2023-02-12T00:49:53;90.93;;;38.70;;
3293;SDS011;1659;51.470;6.770;2023-02-12T00:52:20;81.40;;;37.67;;
3293;SDS011;1659;51.470;6.770;2023-02-12T00:54:46;80.17;;;37.03;;
3293;SDS011;1659;51.470;6.770;2023-02-12T00:57:14;92.23;;;40.13;;
3293;SDS011;1659;51.470;6.770;2023-02-12T00:59:41;81.20;;;37.93;;
3293;SDS011;1659;51.470;6.770;2023-02-12T01:02:07;91.87;;;38.60;;
3293;SDS011;1659;51.470;6.770;2023-02-12T01:04:34;90.53;;;38.60;;
3293;SDS011;1659;51.470;6.770;2023-02-12T01:07:00;85.77;;;39.30;;
3293;SDS011;1659;51.470;6.770;2023-02-12T01:09:27;102.37;;;40.17;;
3293;SDS011;1659;51.470;6.770;2023-02-12T01:11:53;87.17;;;37.90;;
3293;SDS011;1659;51.470;6.770;2023-02-12T01:14:21;89.70;;;38.93;;
3293;SDS011;1659;51.470;6.770;2023-02-12T01:16:48;81.03;;;40.20;;
3293;SDS011;1659;51.470;6.770;2023-02-12T01:19:14;87.90;;;39.27;;
3293;SDS011;1659;51.470;6.770;2023-02-12T01:21:41;86.93;;;36.87;;
3293;SDS011;1659;51.470;6.770;2023-02-12T01:24:08;79.30;;;38.47;;
3293;SDS011;1659;51.470;6.770;2023-02-12T01:26:35;74.57;;;36.53;;
3293;SDS011;1659;51.470;6.770;2023-02-12T01:29:03;84.30;;;37.90;;
3293;SDS011;1659;51.470;6.770;2023-02-12T01:31:34;82.03;;;37.23;;
3293;SDS011;1659;51.470;6.770;2023-02-12T01:34:02;79.90;;;36.80;;
3293;SDS011;1659;51.470;6.770;2023-02-12T01:36:30;79.97;;;37.37;;
3293;SDS011;1659;51.470;6.770;2023-02-12T01:38:57;84.13;;;38.43;;
3293;SDS011;1659;51.470;6.770;2023-02-12T01:41:27;74.97;;;35.90;;
3293;SDS011;1659;51.470;6.770;2023-02-12T01:44:05;77.03;;;35.90;;
3293;SDS011;1659;51.470;6.770;2023-02-12T01:46:34;85.50;;;37.47;;
3293;SDS011;1659;51.470;6.770;2023-02-12T01:49:01;83.03;;;38.30;;
3293;SDS011;1659;51.470;6.770;2023-02-12T01:51:30;89.07;;;38.37;;
3293;SDS011;1659;51.470;6.770;2023-02-12T01:53:58;87.60;;;37.13;;
3293;SDS011;1659;51.470;6.770;2023-02-12T01:56:27;85.80;;;38.57;;
3293;SDS011;1659;51.470;6.770;2023-02-12T01:58:55;91.37;;;38.93;;
3293;SDS011;1659;51.470;6.770;2023-02-12T02:01:23;91.53;;;37.73;;
3293;SDS011;1659;51.470;6.770;2023-02-12T02:03:54;78.57;;;37.80;;
3293;SDS011;1659;51.470;6.770;2023-02-12T02:06:26;85.37;;;37.90;;
3293;SDS011;1659;51.470;6.770;2023-02-12T02:08:56;82.70;;;37.47;;
3293;SDS011;1659;51.470;6.770;2023-02-12T02:11:23;90.83;;;39.13;;
3293;SDS011;1659;51.470;6.770;2023-02-12T02:14:07;102.73;;;41.30;;
3293;SDS011;1659;51.470;6.770;2023-02-12T02:16:53;98.67;;;41.90;;
3293;SDS011;1659;51.470;6.770;2023-02-12T02:19:29;83.50;;;37.77;;
3293;SDS011;1659;51.470;6.770;2023-02-12T02:22:16;91.47;;;38.10;;
3293;SDS011;1659;51.470;6.770;2023-02-12T02:27:50;85.13;;;39.27;;
3293;SDS011;1659;51.470;6.770;2023-02-12T02:30:33;92.30;;;41.70;;
3293;SDS011;1659;51.470;6.770;2023-02-12T02:35:52;88.63;;;40.90;;
3293;SDS011;1659;51.470;6.770;2023-02-12T02:38:28;90.27;;;41.50;;
3293;SDS011;1659;51.470;6.770;2023-02-12T02:41:01;92.13;;;42.40;;
3293;SDS011;1659;51.470;6.770;2023-02-12T02:43:32;97.33;;;43.43;;
3293;SDS011;1659;51.470;6.770;2023-02-12T02:46:06;89.57;;;41.97;;
3293;SDS011;1659;51.470;6.770;2023-02-12T02:48:37;96.77;;;41.47;;
3293;SDS011;1659;51.470;6.770;2023-02-12T02:51:08;86.63;;;42.70;;
3293;SDS011;1659;51.470;6.770;2023-02-12T02:53:38;100.33;;;42.10;;
3293;SDS011;1659;51.470;6.770;2023-02-12T02:56:10;107.57;;;45.23;;
3293;SDS011;1659;51.470;6.770;2023-02-12T02:58:40;100.60;;;41.63;;
3293;SDS011;1659;51.470;6.770;2023-02-12T03:01:12;100.53;;;43.37;;
3293;SDS011;1659;51.470;6.770;2023-02-12T03:03:44;90.60;;;42.37;;
3293;SDS011;1659;51.470;6.770;2023-02-12T03:06:18;89.67;;;41.60;;
3293;SDS011;1659;51.470;6.770;2023-02-12T03:08:51;98.13;;;43.70;;
3293;SDS011;1659;51.470;6.770;2023-02-12T03:11:22;102.87;;;42.60;;
3293;SDS011;1659;51.470;6.770;2023-02-12T03:13:53;115.97;;;44.83;;
3293;SDS011;1659;51.470;6.770;2023-02-12T03:16:26;102.53;;;43.17;;
3293;SDS011;1659;51.470;6.770;2023-02-12T03:18:57;95.93;;;41.57;;
3293;SDS011;1659;51.470;6.770;2023-02-12T03:21:29;102.33;;;42.90;;
3293;SDS011;1659;51.470;6.770;2023-02-12T03:24:01;96.40;;;41.93;;
3293;SDS011;1659;51.470;6.770;2023-02-12T03:26:37;98.20;;;43.00;;
3293;SDS011;1659;51.470;6.770;2023-02-12T03:29:08;97.83;;;44.23;;
3293;SDS011;1659;51.470;6.770;2023-02-12T03:31:40;103.60;;;43.93;;
3293;SDS011;1659;51.470;6.770;2023-02-12T03:34:16;97.40;;;44.03;;
3293;SDS011;1659;51.470;6.770;2023-02-12T03:36:52;102.27;;;42.37;;
3293;SDS011;1659;51.470;6.770;2023-02-12T03:39:25;90.67;;;40.47;;
3293;SDS011;1659;51.470;6.770;2023-02-12T03:42:02;96.00;;;43.80;;
3293;SDS011;1659;51.470;6.770;2023-02-12T03:44:42;111.50;;;45.10;;
3293;SDS011;1659;51.470;6.770;2023-02-12T03:47:20;105.03;;;42.23;;
3293;SDS011;1659;51.470;6.770;2023-02-12T03:49:56;95.33;;;41.67;;
3293;SDS011;1659;51.470;6.770;2023-02-12T03:52:27;95.73;;;41.20;;
3293;SDS011;1659;51.470;6.770;2023-02-12T03:54:55;112.50;;;43.90;;
3293;SDS011;1659;51.470;6.770;2023-02-12T03:57:23;103.53;;;43.73;;
3293;SDS011;1659;51.470;6.770;2023-02-12T03:59:54;93.10;;;43.50;;
3293;SDS011;1659;51.470;6.770;2023-02-12T04:02:23;98.10;;;43.37;;
3293;SDS011;1659;51.470;6.770;2023-02-12T04:04:51;88.07;;;42.93;;
3293;SDS011;1659;51.470;6.770;2023-02-12T04:07:17;105.13;;;41.63;;
3293;SDS011;1659;51.470;6.770;2023-02-12T04:09:44;99.33;;;43.03;;
3293;SDS011;1659;51.470;6.770;2023-02-12T04:12:17;95.57;;;43.37;;
3293;SDS011;1659;51.470;6.770;2023-02-12T04:14:55;113.20;;;43.73;;
3293;SDS011;1659;51.470;6.770;2023-02-12T04:17:34;95.73;;;42.17;;
3293;SDS011;1659;51.470;6.770;2023-02-12T04:20:12;100.90;;;41.90;;
3293;SDS011;1659;51.470;6.770;2023-02-12T04:22:51;100.97;;;41.03;;
3293;SDS011;1659;51.470;6.770;2023-02-12T04:25:27;103.80;;;42.17;;
3293;SDS011;1659;51.470;6.770;2023-02-12T04:28:07;103.03;;;41.40;;
3293;SDS011;1659;51.470;6.770;2023-02-12T04:30:41;92.50;;;41.40;;
3293;SDS011;1659;51.470;6.770;2023-02-12T04:33:14;88.27;;;39.97;;
3293;SDS011;1659;51.470;6.770;2023-02-12T04:35:47;99.33;;;41.83;;
3293;SDS011;1659;51.470;6.770;2023-02-12T04:38:18;98.77;;;41.40;;
3293;SDS011;1659;51.470;6.770;2023-02-12T04:40:50;98.27;;;41.97;;
3293;SDS011;1659;51.470;6.770;2023-02-12T04:43:25;94.77;;;41.80;;
3293;SDS011;1659;51.470;6.770;2023-02-12T04:45:53;104.57;;;40.23;;
3293;SDS011;1659;51.470;6.770;2023-02-12T04:48:21;97.40;;;40.80;;
3293;SDS011;1659;51.470;6.770;2023-02-12T04:50:47;102.40;;;42.10;;
3293;SDS011;1659;51.470;6.770;2023-02-12T04:53:14;92.03;;;38.73;;
3293;SDS011;1659;51.470;6.770;2023-02-12T04:55:41;99.30;;;40.60;;
3293;SDS011;1659;51.470;6.770;2023-02-12T04:58:07;99.50;;;39.43;;
3293;SDS011;1659;51.470;6.770;2023-02-12T05:00:34;96.03;;;42.57;;
3293;SDS011;1659;51.470;6.770;2023-02-12T05:03:01;83.63;;;39.23;;
3293;SDS011;1659;51.470;6.770;2023-02-12T05:05:28;92.73;;;40.70;;
3293;SDS011;1659;51.470;6.770;2023-02-12T05:07:55;95.77;;;40.97;;
3293;SDS011;1659;51.470;6.770;2023-02-12T05:10:22;85.67;;;38.37;;
3293;SDS011;1659;51.470;6.770;2023-02-12T05:12:50;99.37;;;40.20;;
3293;SDS011;1659;51.470;6.770;2023-02-12T05:15:17;94.37;;;40.80;;
3293;SDS011;1659;51.470;6.770;2023-02-12T05:17:43;88.03;;;38.10;;
3293;SDS011;1659;51.470;6.770;2023-02-12T05:20:11;89.47;;;39.53;;
3293;SDS011;1659;51.470;6.770;2023-02-12T05:22:39;87.27;;;40.67;;
3293;SDS011;1659;51.470;6.770;2023-02-12T05:25:06;102.40;;;42.27;;
3293;SDS011;1659;51.470;6.770;2023-02-12T05:27:33;88.00;;;39.70;;
3293;SDS011;1659;51.470;6.770;2023-02-12T05:29:59;99.53;;;40.63;;
3293;SDS011;1659;51.470;6.770;2023-02-12T05:32:26;94.67;;;39.80;;
3293;SDS011;1659;51.470;6.770;2023-02-12T05:34:53;88.17;;;39.27;;
3293;SDS011;1659;51.470;6.770;2023-02-12T05:37:19;98.80;;;39.53;;
3293;SDS011;1659;51.470;6.770;2023-02-12T05:39:48;87.57;;;37.80;;
3293;SDS011;1659;51.470;6.770;2023-02-12T05:42:15;93.63;;;40.53;;
3293;SDS011;1659;51.470;6.770;2023-02-12T05:44:42;86.43;;;39.33;;
3293;SDS011;1659;51.470;6.770;2023-02-12T05:47:08;89.80;;;39.33;;
3293;SDS011;1659;51.470;6.770;2023-02-12T05:49:35;81.13;;;37.80;;
3293;SDS011;1659;51.470;6.770;2023-02-12T05:52:01;83.53;;;39.63;;
3293;SDS011;1659;51.470;6.770;2023-02-12T05:54:28;85.43;;;36.50;;
3293;SDS011;1659;51.470;6.770;2023-02-12T05:56:56;82.77;;;35.70;;
3293;SDS011;1659;51.470;6.770;2023-02-12T05:59:22;89.70;;;39.20;;
3293;SDS011;1659;51.470;6.770;2023-02-12T06:01:49;72.20;;;34.23;;
3293;SDS011;1659;51.470;6.770;2023-02-12T06:04:18;87.30;;;37.20;;
3293;SDS011;1659;51.470;6.770;2023-02-12T06:06:47;81.53;;;36.90;;
3293;SDS011;1659;51.470;6.770;2023-02-12T06:09:14;83.00;;;36.73;;
3293;SDS011;1659;51.470;6.770;2023-02-12T06:11:40;85.40;;;37.40;;
3293;SDS011;1659;51.470;6.770;2023-02-12T06:14:10;81.00;;;34.60;;
3293;SDS011;1659;51.470;6.770;2023-02-12T06:16:39;76.57;;;34.73;;
3293;SDS011;1659;51.470;6.770;2023-02-12T06:19:06;81.07;;;36.83;;
3293;SDS011;1659;51.470;6.770;2023-02-12T06:21:33;79.17;;;37.10;;
3293;SDS011;1659;51.470;6.770;2023-02-12T06:23:59;79.60;;;36.07;;
3293;SDS011;1659;51.470;6.770;2023-02-12T06:26:26;85.13;;;37.83;;
3293;SDS011;1659;51.470;6.770;2023-02-12T06:28:52;87.20;;;38.47;;
3293;SDS011;1659;51.470;6.770;2023-02-12T06:31:21;79.47;;;36.00;;
3293;SDS011;1659;51.470;6.770;2023-02-12T06:33:49;67.33;;;34.60;;
3293;SDS011;1659;51.470;6.770;2023-02-12T06:36:17;78.20;;;35.30;;
3293;SDS011;1659;51.470;6.770;2023-02-12T06:38:44;85.33;;;37.70;;
3293;SDS011;1659;51.470;6.770;2023-02-12T06:41:11;86.80;;;36.80;;
3293;SDS011;1659;51.470;6.770;2023-02-12T06:43:37;89.67;;;38.20;;
3293;SDS011;1659;51.470;6.770;2023-02-12T06:46:04;81.07;;;37.10;;
3293;SDS011;1659;51.470;6.770;2023-02-12T06:48:32;78.77;;;34.43;;
3293;SDS011;1659;51.470;6.770;2023-02-12T06:51:05;79.53;;;37.83;;
3293;SDS011;1659;51.470;6.770;2023-02-12T06:53:32;79.13;;;35.47;;
3293;SDS011;1659;51.470;6.770;2023-02-12T06:56:00;75.93;;;36.17;;
3293;SDS011;1659;51.470;6.770;2023-02-12T06:58:27;92.10;;;38.40;;
3293;SDS011;1659;51.470;6.770;2023-02-12T07:00:53;79.97;;;36.23;;
3293;SDS011;1659;51.470;6.770;2023-02-12T07:03:20;75.20;;;36.70;;
3293;SDS011;1659;51.470;6.770;2023-02-12T07:05:48;84.90;;;36.77;;
3293;SDS011;1659;51.470;6.770;2023-02-12T07:08:14;77.17;;;36.67;;
3293;SDS011;1659;51.470;6.770;2023-02-12T07:10:41;98.97;;;38.27;;
3293;SDS011;1659;51.470;6.770;2023-02-12T07:13:07;77.23;;;35.57;;
3293;SDS011;1659;51.470;6.770;2023-02-12T07:15:37;87.93;;;38.20;;
3293;SDS011;1659;51.470;6.770;2023-02-12T07:18:04;87.50;;;39.57;;
3293;SDS011;1659;51.470;6.770;2023-02-12T07:20:30;83.60;;;37.70;;
3293;SDS011;1659;51.470;6.770;2023-02-12T07:22:58;83.60;;;39.27;;
3293;SDS011;1659;51.470;6.770;2023-02-12T07:25:24;94.23;;;40.60;;
3293;SDS011;1659;51.470;6.770;2023-02-12T07:27:51;91.87;;;38.50;;
3293;SDS011;1659;51.470;6.770;2023-02-12T07:30:18;85.47;;;37.47;;
3293;SDS011;1659;51.470;6.770;2023-02-12T07:32:44;84.10;;;38.10;;
3293;SDS011;1659;51.470;6.770;2023-02-12T07:35:11;84.63;;;39.07;;
3293;SDS011;1659;51.470;6.770;2023-02-12T07:37:37;82.50;;;38.10;;
3293;SDS011;1659;51.470;6.770;2023-02-12T07:40:06;85.70;;;38.10;;
3293;SDS011;1659;51.470;6.770;2023-02-12T07:42:34;93.83;;;38.87;;
3293;SDS011;1659;51.470;6.770;2023-02-12T07:45:00;99.33;;;39.53;;
3293;SDS011;1659;51.470;6.770;2023-02-12T07:47:27;92.33;;;38.43;;
3293;SDS011;1659;51.470;6.770;2023-02-12T07:49:53;90.33;;;39.37;;
3293;SDS011;1659;51.470;6.770;2023-02-12T07:52:20;95.67;;;39.27;;
3293;SDS011;1659;51.470;6.770;2023-02-12T07:54:46;81.50;;;38.97;;
3293;SDS011;1659;51.470;6.770;2023-02-12T07:57:14;95.97;;;38.80;;
3293;SDS011;1659;51.470;6.770;2023-02-12T07:59:41;86.07;;;37.60;;
3293;SDS011;1659;51.470;6.770;2023-02-12T08:02:08;87.03;;;38.23;;
3293;SDS011;1659;51.470;6.770;2023-02-12T08:04:34;79.23;;;37.63;;
3293;SDS011;1659;51.470;6.770;2023-02-12T08:07:01;83.17;;;39.30;;
3293;SDS011;1659;51.470;6.770;2023-02-12T08:09:28;79.43;;;37.70;;
3293;SDS011;1659;51.470;6.770;2023-02-12T08:11:55;81.03;;;36.17;;
3293;SDS011;1659;51.470;6.770;2023-02-12T08:14:24;84.40;;;40.03;;
3293;SDS011;1659;51.470;6.770;2023-02-12T08:16:51;86.47;;;38.17;;
3293;SDS011;1659;51.470;6.770;2023-02-12T08:19:18;89.60;;;39.43;;
3293;SDS011;1659;51.470;6.770;2023-02-12T08:21:45;81.10;;;37.67;;
3293;SDS011;1659;51.470;6.770;2023-02-12T08:24:15;87.77;;;39.23;;
3293;SDS011;1659;51.470;6.770;2023-02-12T08:26:41;90.10;;;39.70;;
3293;SDS011;1659;51.470;6.770;2023-02-12T08:29:09;87.53;;;37.50;;
3293;SDS011;1659;51.470;6.770;2023-02-12T08:31:39;94.77;;;42.40;;
3293;SDS011;1659;51.470;6.770;2023-02-12T08:34:09;92.97;;;38.77;;
3293;SDS011;1659;51.470;6.770;2023-02-12T08:36:42;86.37;;;38.90;;
3293;SDS011;1659;51.470;6.770;2023-02-12T08:39:08;96.20;;;40.50;;
3293;SDS011;1659;51.470;6.770;2023-02-12T08:41:35;83.97;;;38.17;;
3293;SDS011;1659;51.470;6.770;2023-02-12T08:44:03;87.50;;;38.80;;
3293;SDS011;1659;51.470;6.770;2023-02-12T08:46:31;95.73;;;40.23;;
3293;SDS011;1659;51.470;6.770;2023-02-12T08:49:00;79.47;;;38.00;;
3293;SDS011;1659;51.470;6.770;2023-02-12T08:51:28;86.37;;;37.90;;
3293;SDS011;1659;51.470;6.770;2023-02-12T08:53:57;84.80;;;41.53;;
3293;SDS011;1659;51.470;6.770;2023-02-12T08:56:25;96.30;;;40.83;;
3293;SDS011;1659;51.470;6.770;2023-02-12T08:58:55;99.73;;;41.10;;
3293;SDS011;1659;51.470;6.770;2023-02-12T09:01:23;79.97;;;39.40;;
3293;SDS011;1659;51.470;6.770;2023-02-12T09:03:51;94.77;;;42.10;;
3293;SDS011;1659;51.470;6.770;2023-02-12T09:06:20;84.57;;;38.70;;
3293;SDS011;1659;51.470;6.770;2023-02-12T09:08:48;82.90;;;38.10;;
3293;SDS011;1659;51.470;6.770;2023-02-12T09:11:15;86.77;;;37.73;;
3293;SDS011;1659;51.470;6.770;2023-02-12T09:13:44;89.80;;;38.87;;
3293;SDS011;1659;51.470;6.770;2023-02-12T09:16:12;86.90;;;38.77;;
3293;SDS011;1659;51.470;6.770;2023-02-12T09:18:39;88.33;;;40.20;;
3293;SDS011;1659;51.470;6.770;2023-02-12T09:21:07;91.03;;;40.40;;
3293;SDS011;1659;51.470;6.770;2023-02-12T09:23:36;85.17;;;38.03;;
3293;SDS011;1659;51.470;6.770;2023-02-12T09:26:03;77.73;;;37.47;;
3293;SDS011;1659;51.470;6.770;2023-02-12T09:28:30;88.53;;;39.57;;
3293;SDS011;1659;51.470;6.770;2023-02-12T09:30:57;80.73;;;37.97;;
3293;SDS011;1659;51.470;6.770;2023-02-12T09:33:24;93.20;;;39.97;;
3293;SDS011;1659;51.470;6.770;2023-02-12T09:35:50;85.73;;;39.20;;
3293;SDS011;1659;51.470;6.770;2023-02-12T09:38:17;89.20;;;37.20;;
3293;SDS011;1659;51.470;6.770;2023-02-12T09:40:46;85.77;;;38.57;;
3293;SDS011;1659;51.470;6.770;2023-02-12T09:43:25;77.80;;;36.50;;
3293;SDS011;1659;51.470;6.770;2023-02-12T09:45:59;88.23;;;39.77;;
3293;SDS011;1659;51.470;6.770;2023-02-12T09:48:34;81.63;;;37.70;;
3293;SDS011;1659;51.470;6.770;2023-02-12T09:51:10;82.87;;;39.90;;
3293;SDS011;1659;51.470;6.770;2023-02-12T09:53:38;90.17;;;37.73;;
3293;SDS011;1659;51.470;6.770;2023-02-12T09:56:13;76.30;;;37.67;;
3293;SDS011;1659;51.470;6.770;2023-02-12T09:58:43;80.20;;;37.80;;
3293;SDS011;1659;51.470;6.770;2023-02-12T10:01:13;83.67;;;35.40;;
3293;SDS011;1659;51.470;6.770;2023-02-12T10:03:41;78.70;;;37.50;;
3293;SDS011;1659;51.470;6.770;2023-02-12T10:06:10;72.47;;;35.43;;
3293;SDS011;1659;51.470;6.770;2023-02-12T10:08:43;70.47;;;33.97;;
3293;SDS011;1659;51.470;6.770;2023-02-12T10:11:25;69.53;;;35.13;;
3293;SDS011;1659;51.470;6.770;2023-02-12T10:14:04;68.93;;;34.20;;
3293;SDS011;1659;51.470;6.770;2023-02-12T10:16:46;69.10;;;33.87;;
3293;SDS011;1659;51.470;6.770;2023-02-12T10:19:27;61.90;;;32.13;;
3293;SDS011;1659;51.470;6.770;2023-02-12T10:22:06;64.93;;;33.30;;
3293;SDS011;1659;51.470;6.770;2023-02-12T10:24:44;66.50;;;31.53;;
3293;SDS011;1659;51.470;6.770;2023-02-12T10:27:24;68.37;;;30.77;;
3293;SDS011;1659;51.470;6.770;2023-02-12T10:29:59;62.00;;;30.00;;
3293;SDS011;1659;51.470;6.770;2023-02-12T10:32:29;57.27;;;31.67;;
3293;SDS011;1659;51.470;6.770;2023-02-12T10:34:59;56.43;;;28.37;;
3293;SDS011;1659;51.470;6.770;2023-02-12T10:37:27;56.20;;;28.40;;
3293;SDS011;1659;51.470;6.770;2023-02-12T10:40:01;54.97;;;29.10;;
3293;SDS011;1659;51.470;6.770;2023-02-12T10:42:34;81.10;;;31.03;;
3293;SDS011;1659;51.470;6.770;2023-02-12T10:45:04;59.63;;;30.00;;
3293;SDS011;1659;51.470;6.770;2023-02-12T10:47:37;63.27;;;30.33;;
3293;SDS011;1659;51.470;6.770;2023-02-12T10:50:06;55.57;;;27.80;;
3293;SDS011;1659;51.470;6.770;2023-02-12T10:52:44;55.70;;;29.10;;
3293;SDS011;1659;51.470;6.770;2023-02-12T10:55:23;59.37;;;26.53;;
3293;SDS011;1659;51.470;6.770;2023-02-12T10:57:52;55.40;;;28.43;;
3293;SDS011;1659;51.470;6.770;2023-02-12T11:00:25;52.70;;;27.10;;
3293;SDS011;1659;51.470;6.770;2023-02-12T11:02:58;54.00;;;27.57;;
3293;SDS011;1659;51.470;6.770;2023-02-12T11:05:31;60.23;;;28.83;;
3293;SDS011;1659;51.470;6.770;2023-02-12T11:07:59;63.63;;;29.50;;
3293;SDS011;1659;51.470;6.770;2023-02-12T11:10:27;64.50;;;30.20;;
3293;SDS011;1659;51.470;6.770;2023-02-12T11:12:58;54.07;;;29.00;;
3293;SDS011;1659;51.470;6.770;2023-02-12T11:15:26;53.13;;;28.37;;
3293;SDS011;1659;51.470;6.770;2023-02-12T11:17:57;48.63;;;25.77;;
3293;SDS011;1659;51.470;6.770;2023-02-12T11:20:26;48.53;;;25.90;;
3293;SDS011;1659;51.470;6.770;2023-02-12T11:22:55;49.17;;;25.70;;
3293;SDS011;1659;51.470;6.770;2023-02-12T11:25:23;51.30;;;26.60;;
3293;SDS011;1659;51.470;6.770;2023-02-12T11:27:59;51.70;;;26.63;;
3293;SDS011;1659;51.470;6.770;2023-02-12T11:30:29;52.50;;;27.43;;
3293;SDS011;1659;51.470;6.770;2023-02-12T11:33:09;51.03;;;26.37;;
3293;SDS011;1659;51.470;6.770;2023-02-12T11:35:47;49.90;;;26.60;;
3293;SDS011;1659;51.470;6.770;2023-02-12T11:38:17;52.47;;;26.90;;
3293;SDS011;1659;51.470;6.770;2023-02-12T11:40:48;48.33;;;25.50;;
3293;SDS011;1659;51.470;6.770;2023-02-12T11:43:19;53.53;;;26.80;;
3293;SDS011;1659;51.470;6.770;2023-02-12T11:45:48;50.97;;;26.10;;
3293;SDS011;1659;51.470;6.770;2023-02-12T11:48:21;47.77;;;25.40;;
3293;SDS011;1659;51.470;6.770;2023-02-12T11:50:51;43.87;;;25.07;;
3293;SDS011;1659;51.470;6.770;2023-02-12T11:53:20;47.93;;;26.07;;
3293;SDS011;1659;51.470;6.770;2023-02-12T11:55:53;47.90;;;27.23;;
3293;SDS011;1659;51.470;6.770;2023-02-12T11:58:23;54.00;;;28.70;;
3293;SDS011;1659;51.470;6.770;2023-02-12T12:00:52;52.10;;;27.80;;
3293;SDS011;1659;51.470;6.770;2023-02-12T12:03:25;49.00;;;26.63;;
3293;SDS011;1659;51.470;6.770;2023-02-12T12:05:56;51.47;;;27.63;;
3293;SDS011;1659;51.470;6.770;2023-02-12T12:08:28;50.37;;;27.20;;
3293;SDS011;1659;51.470;6.770;2023-02-12T12:11:03;48.40;;;25.90;;
3293;SDS011;1659;51.470;6.770;2023-02-12T12:13:38;47.27;;;26.10;;
3293;SDS011;1659;51.470;6.770;2023-02-12T12:16:12;59.87;;;26.03;;
3293;SDS011;1659;51.470;6.770;2023-02-12T12:19:01;48.40;;;26.20;;
3293;SDS011;1659;51.470;6.770;2023-02-12T12:21:51;48.33;;;25.80;;
3293;SDS011;1659;51.470;6.770;2023-02-12T12:24:25;44.70;;;24.87;;
3293;SDS011;1659;51.470;6.770;2023-02-12T12:27:02;46.17;;;24.80;;
3293;SDS011;1659;51.470;6.770;2023-02-12T12:29:50;46.30;;;24.20;;
3293;SDS011;1659;51.470;6.770;2023-02-12T12:32:22;49.47;;;26.07;;
3293;SDS011;1659;51.470;6.770;2023-02-12T12:34:55;47.43;;;25.90;;
3293;SDS011;1659;51.470;6.770;2023-02-12T12:37:28;49.23;;;25.70;;
3293;SDS011;1659;51.470;6.770;2023-02-12T12:40:06;52.30;;;25.00;;
3293;SDS011;1659;51.470;6.770;2023-02-12T12:42:56;44.37;;;23.47;;
3293;SDS011;1659;51.470;6.770;2023-02-12T12:45:58;51.33;;;24.10;;
3293;SDS011;1659;51.470;6.770;2023-02-12T12:48:37;46.27;;;24.17;;
3293;SDS011;1659;51.470;6.770;2023-02-12T12:51:19;51.10;;;25.07;;
3293;SDS011;1659;51.470;6.770;2023-02-12T12:53:59;55.23;;;27.53;;
3293;SDS011;1659;51.470;6.770;2023-02-12T12:56:44;48.70;;;23.70;;
3293;SDS011;1659;51.470;6.770;2023-02-12T12:59:37;46.37;;;24.43;;
3293;SDS011;1659;51.470;6.770;2023-02-12T13:08:17;51.73;;;24.97;;
3293;SDS011;1659;51.470;6.770;2023-02-12T13:10:59;56.10;;;25.80;;
3293;SDS011;1659;51.470;6.770;2023-02-12T13:13:32;54.90;;;25.73;;
3293;SDS011;1659;51.470;6.770;2023-02-12T13:16:03;51.67;;;26.03;;
3293;SDS011;1659;51.470;6.770;2023-02-12T13:18:41;59.20;;;28.40;;
3293;SDS011;1659;51.470;6.770;2023-02-12T13:21:16;49.93;;;26.37;;
3293;SDS011;1659;51.470;6.770;2023-02-12T13:23:49;51.87;;;26.70;;
3293;SDS011;1659;51.470;6.770;2023-02-12T13:26:21;48.47;;;26.03;;
3293;SDS011;1659;51.470;6.770;2023-02-12T13:28:55;51.10;;;25.90;;
3293;SDS011;1659;51.470;6.770;2023-02-12T13:31:27;45.83;;;25.03;;
3293;SDS011;1659;51.470;6.770;2023-02-12T13:33:57;52.33;;;26.23;;
3293;SDS011;1659;51.470;6.770;2023-02-12T13:36:26;50.07;;;25.20;;
3293;SDS011;1659;51.470;6.770;2023-02-12T13:38:54;53.13;;;25.30;;
3293;SDS011;1659;51.470;6.770;2023-02-12T13:41:25;60.77;;;26.00;;
3293;SDS011;1659;51.470;6.770;2023-02-12T13:43:56;51.37;;;26.67;;
3293;SDS011;1659;51.470;6.770;2023-02-12T13:46:32;51.93;;;26.00;;
3293;SDS011;1659;51.470;6.770;2023-02-12T13:49:12;57.43;;;25.23;;
3293;SDS011;1659;51.470;6.770;2023-02-12T13:51:45;48.33;;;24.60;;
3293;SDS011;1659;51.470;6.770;2023-02-12T13:54:27;45.77;;;25.37;;
3293;SDS011;1659;51.470;6.770;2023-02-12T13:57:06;60.33;;;24.47;;
3293;SDS011;1659;51.470;6.770;2023-02-12T13:59:38;46.93;;;24.17;;
3293;SDS011;1659;51.470;6.770;2023-02-12T14:02:29;47.83;;;24.93;;
3293;SDS011;1659;51.470;6.770;2023-02-12T14:07:53;58.10;;;27.23;;
3293;SDS011;1659;51.470;6.770;2023-02-12T14:10:23;49.60;;;24.50;;
3293;SDS011;1659;51.470;6.770;2023-02-12T14:12:52;64.40;;;27.57;;
3293;SDS011;1659;51.470;6.770;2023-02-12T14:15:31;58.97;;;28.20;;
3293;SDS011;1659;51.470;6.770;2023-02-12T14:18:04;53.93;;;27.37;;
3293;SDS011;1659;51.470;6.770;2023-02-12T14:20:49;52.20;;;25.03;;
3293;SDS011;1659;51.470;6.770;2023-02-12T14:27:21;49.47;;;25.67;;
3293;SDS011;1659;51.470;6.770;2023-02-12T14:33:10;58.73;;;26.53;;
3293;SDS011;1659;51.470;6.770;2023-02-12T14:35:46;47.67;;;25.00;;
3293;SDS011;1659;51.470;6.770;2023-02-12T14:41:27;50.77;;;25.17;;
3293;SDS011;1659;51.470;6.770;2023-02-12T14:47:10;60.83;;;27.67;;
3293;SDS011;1659;51.470;6.770;2023-02-12T14:50:02;52.07;;;26.40;;
3293;SDS011;1659;51.470;6.770;2023-02-12T14:52:37;59.33;;;26.27;;
3293;SDS011;1659;51.470;6.770;2023-02-12T14:55:06;49.40;;;25.47;;
3293;SDS011;1659;51.470;6.770;2023-02-12T14:57:46;57.77;;;27.13;;
3293;SDS011;1659;51.470;6.770;2023-02-12T15:00:19;59.50;;;29.30;;
3293;SDS011;1659;51.470;6.770;2023-02-12T15:02:52;65.43;;;29.03;;
3293;SDS011;1659;51.470;6.770;2023-02-12T15:05:22;55.70;;;27.40;;
3293;SDS011;1659;51.470;6.770;2023-02-12T15:07:52;57.03;;;26.97;;
3293;SDS011;1659;51.470;6.770;2023-02-12T15:10:23;54.53;;;27.40;;
3293;SDS011;1659;51.470;6.770;2023-02-12T15:12:59;51.33;;;26.47;;
3293;SDS011;1659;51.470;6.770;2023-02-12T15:15:33;58.40;;;26.73;;
3293;SDS011;1659;51.470;6.770;2023-02-12T15:18:06;60.00;;;28.70;;
3293;SDS011;1659;51.470;6.770;2023-02-12T15:20:39;59.73;;;27.60;;
3293;SDS011;1659;51.470;6.770;2023-02-12T15:26:05;62.63;;;27.73;;
3293;SDS011;1659;51.470;6.770;2023-02-12T15:28:38;55.33;;;27.50;;
3293;SDS011;1659;51.470;6.770;2023-02-12T15:31:06;49.93;;;25.17;;
3293;SDS011;1659;51.470;6.770;2023-02-12T15:33:36;62.13;;;28.10;;
3293;SDS011;1659;51.470;6.770;2023-02-12T15:36:07;56.37;;;25.27;;
3293;SDS011;1659;51.470;6.770;2023-02-12T15:38:36;49.63;;;26.93;;
3293;SDS011;1659;51.470;6.770;2023-02-12T15:41:05;52.37;;;25.70;;